Pagina principale
METAR-TAF:

METAR-TAF

Aeroporti :

Chinandega, Nicaragua

latitudine: 12-38N, longitudine: 087-08W, altezza: 53 m

Osservazione

Il bollettino è stato emesso 32 minuti fa, alle 17:00 UTC
Vento 6 kt da sud
Temperature 26°C
Umidità 94%
Pressione 1010 hPa
Visibilità: 6000 m
Poco nuvoloso ad un'altezza di 2300 ft, Cumulonembo.
Nubi sparse ad un'altezza di 2400 ft, Cumulo congesto.
temporale, (debole)

METAR: MNCH 161700Z 19006KT 6000 -TS FEW023CB SCT024TCU 26/25 Q1010 CBRA/SE/S TCURA/N/NE/E RA/SW/W/NW RETSRA

Ora: 11:32 (17:32 UTC)


TAF: mancante

Osservazioni e previsioni meteorologiche di più di 4000 aeroporti (messaggi METAR e TAF).

Le stazioni disponibili sono rappresentate dai dischi gialli e rossi sulla carta.

Puntare il mouse per vedere il nome della stazione.

Clicca sopra per visualizzare le osservazioni e previsioni meteorologiche.

Per cambiare la mappa : fare clic sui pulsanti verdi con una croce nera per ingrandire, il pulsante verde con un trattino per diminuire, o sulla freccia verde per le mappe adiacenti.


METAR-TAF: